Orr, North Dakota
Current Conditions -  °F | °C
As of 8:58 AM on Saturday 20 Dec 2014 (Local Time) from KRDR Reporting Station
Haze Haze  
Wind Chill: 16°   Ceiling: 400
Heat Index: 26°   Visibility: 6mi
Dew Point: 26°   Wind: 10mph
Humidity: 100%   Direction: 220°SW
Pressure: 30"   Gusts: NA
Location:  48.1078°N, 97.7089°W
Report Text: KRDR 201458Z AUTO 22009KT 6SM BR OVC004 M03/M03 A3000 RMK AO2 SLP178 T10351035 50004
Loading
Personal Weather Stations






























Interactive Weather Map New forecast layout! Learn more

10-Day Weather Forecast

Advertisements
Track Severe Weather on mobile